< < Back
Terminal Aerodrome Forecast


Current Version              Previous Versions:   1  2  3  4  5  6  7  8  9  

Terminal Aerodrome Forecast

245
FTUS42 KGSP 251121
TAFCLT
TAF
KCLT 251121Z 2512/2612 35005KT P6SM FEW250
     FM251700 25005KT P6SM SKC
     FM260400 31003KT P6SM SKC=

Latest METAR

297
SAUS70 KWBC 260100 RRA
MTRCLT
METAR KCLT 260052Z 25004KT 10SM CLR 15/04 A2996 RMK AO2 SLP143
T01500039


USA.gov is the U.S. government's official web portal to all federal, state and local government web resources and services.